Darstellungsparameter: Aktuell verwendete Einstellungen:
Skalierung der Graphiken ... ?
xyx+y,   Skalierungsfaktor:      Skalierung: Modus: x, Faktor: 1
Darstellungszeitraum ... ?
Vom - - bis: - -   Zeitraum: 18.11.2020 - 17.12.2020
Min/Max/Avg-Anzeige ... ?
Zeige MMA aktuell
Zeige MMA Monat
Zeige MMA alles
Zeige --A aktuell
Zeige --A Monat
Zeige --A alles
Keine MMA-Anzeige
MMA:
Average (ber die Originaldaten)
MMA-Basis: 23.02.2003 - 03.08.2020
Quicknavigation für Darstellung... ?
Tage:      1T, 2T, 3T, 5T -1T -2T -3T -5T +1T +2T +3T +5T
Wochen: 1W, 2W, 3W -1W -2W -3W +1W +2W +3W
Monate: 1M, 3M, 6M -1M -3M -6M +1M +3M +6M
Jahre:    1J, 3J, 5J, 10J -1J -3J -5J -10J +1J +3J +5J +10J
Nutze für die Darstellung ... ?
Originaldaten oder ...
Mittelwerte Minima Maxima auf...
Stundenbasis Tagesbasis Wochenbasis
Monatsbasis Jahresbasis      Datenbasis: Mittelwerte auf Stundenbasis
Darstellen als:
Statistik (Auto) Statistik J:M      Darstellung:
Zur Graphik,    zurück zur Übersicht aller Sensoren.
 
Tabellarische Datenbersicht: ?
 
Sensor: Nr:Datum:Temp:Abs-Feuchte:Windchill:Wind:
Aussen-T/F 1 18-11-2020 00:00:00 11.53333 C 8.8 g/m*3 11.53 C 2 km/h
2 18-11-2020 01:00:00 11.35 C 8.78 g/m*3 11.35 C 0 km/h
3 18-11-2020 02:00:00 11.3 C 8.77 g/m*3 11.3 C 2.66667 km/h
4 18-11-2020 03:00:00 11.175 C 8.75 g/m*3 11.18 C 1.46667 km/h
5 18-11-2020 04:00:00 10.95 C 8.68 g/m*3 10.95 C 0.4 km/h
6 18-11-2020 05:00:00 10.8 C 8.63 g/m*3 10.8 C 0.26667 km/h
7 18-11-2020 06:00:00 10.7 C 8.64 g/m*3 10.7 C 0.13333 km/h
8 18-11-2020 07:00:00 10.7 C 8.67 g/m*3 10.7 C 0 km/h
9 18-11-2020 08:00:00 10.775 C 8.63 g/m*3 10.78 C 2.66667 km/h
10 18-11-2020 09:00:00 10.6 C 8.46 g/m*3 10.6 C 1.2 km/h
11 18-11-2020 10:00:00 9.43333 C 8.13 g/m*3 9.43 C 2.13333 km/h
12 18-11-2020 11:00:00 9.6 C 8.48 g/m*3 9.6 C 4 km/h
13 18-11-2020 12:00:00 10.35 C 8.83 g/m*3 10.35 C 2.8 km/h
14 18-11-2020 13:00:00 10.975 C 9.09 g/m*3 10.98 C 0 km/h
15 18-11-2020 14:00:00 11.54167 C 9.3 g/m*3 11.54 C 2.13333 km/h
16 18-11-2020 15:00:00 12.15 C 9.42 g/m*3 12.15 C 4.4 km/h
17 18-11-2020 16:00:00 11.23333 C 8.95 g/m*3 11.23 C 5.06667 km/h
18 18-11-2020 17:00:00 9.60833 C 8.25 g/m*3 9.61 C 3.86667 km/h
19 18-11-2020 18:00:00 8.64167 C 7.93 g/m*3 8.64 C 4.66667 km/h
20 18-11-2020 19:00:00 8.00833 C 7.69 g/m*3 8.01 C 2.8 km/h
21 18-11-2020 20:00:00 7.3 C 7.37 g/m*3 7.3 C 0.4 km/h
22 18-11-2020 21:00:00 6.66667 C 7.13 g/m*3 6.67 C 0.66667 km/h
23 18-11-2020 22:00:00 6.35 C 7.02 g/m*3 6.35 C 0.4 km/h
24 18-11-2020 23:00:00 6.00833 C 6.9 g/m*3 6.01 C 0.26667 km/h
25 19-11-2020 00:00:00 6.94167 C 7.41 g/m*3 6.07 C 5.64167 km/h
Sensor: Nr:Datum:Temp:Abs-Feuchte:Windchill:Wind:
Aussen-T/F 26 19-11-2020 01:00:00 11.14167 C 8.55 g/m*3 11.14 C 13.83333 km/h
27 19-11-2020 02:00:00 11.925 C 8.76 g/m*3 11.93 C 12.75833 km/h
28 19-11-2020 03:00:00 10.675 C 8.92 g/m*3 9.32 C 10.75833 km/h
29 19-11-2020 04:00:00 10.7 C 8.96 g/m*3 9.82 C 8.05 km/h
30 19-11-2020 05:00:00 10.61667 C 9 g/m*3 9.4 C 9.80833 km/h
31 19-11-2020 06:00:00 8.975 C 8.28 g/m*3 8.04 C 6.99167 km/h
32 19-11-2020 07:00:00 8.475 C 8.05 g/m*3 8.48 C 4.93333 km/h
33 19-11-2020 08:00:00 7.95 C 7.75 g/m*3 6.92 C 6.69167 km/h
34 19-11-2020 09:00:00 7.65833 C 7.43 g/m*3 6.21 C 8.19167 km/h
35 19-11-2020 10:00:00 8.51667 C 7.66 g/m*3 7.38 C 7.51667 km/h
36 19-11-2020 11:00:00 9.68333 C 7.96 g/m*3 8.49 C 8.73333 km/h
37 19-11-2020 12:00:00 9.56667 C 8.24 g/m*3 8.7 C 7.10833 km/h
38 19-11-2020 13:00:00 9.95 C 7.7 g/m*3 8 C 13.825 km/h
39 19-11-2020 14:00:00 10.55833 C 7.33 g/m*3 8.61 C 14.9 km/h
40 19-11-2020 15:00:00 10.89167 C 7.14 g/m*3 9.48 C 11.425 km/h
41 19-11-2020 16:00:00 10.28333 C 7.34 g/m*3 8.76 C 11.3 km/h
42 19-11-2020 17:00:00 9.43333 C 7.56 g/m*3 9.43 C 2.93333 km/h
43 19-11-2020 18:00:00 8.63333 C 7.7 g/m*3 8.63 C 4.14167 km/h
44 19-11-2020 19:00:00 8.01667 C 7.58 g/m*3 7.18 C 6.025 km/h
45 19-11-2020 20:00:00 7.7 C 7.52 g/m*3 7.7 C 2.4 km/h
46 19-11-2020 21:00:00 6.65 C 7.08 g/m*3 6.65 C 2.8 km/h
47 19-11-2020 22:00:00 5.56667 C 6.62 g/m*3 5.57 C 3.73333 km/h
48 19-11-2020 23:00:00 5.41667 C 6.64 g/m*3 5.42 C 1.33333 km/h
49 20-11-2020 00:00:00 5.25833 C 6.56 g/m*3 5.26 C 4 km/h
50 20-11-2020 01:00:00 5.01667 C 6.36 g/m*3 5.02 C 2.80833 km/h
Sensor: Nr:Datum:Temp:Abs-Feuchte:Windchill:Wind:
Aussen-T/F 51 20-11-2020 02:00:00 4.475 C 6.15 g/m*3 4.47 C 2.93333 km/h
52 20-11-2020 03:00:00 3.00833 C 5.56 g/m*3 3.01 C 0.93333 km/h
53 20-11-2020 04:00:00 2.49167 C 5.42 g/m*3 2.49 C 0.53333 km/h
54 20-11-2020 05:00:00 2.825 C 5.61 g/m*3 2.83 C 2.93333 km/h
55 20-11-2020 06:00:00 3.21667 C 5.79 g/m*3 3.22 C 3.73333 km/h
56 20-11-2020 07:00:00 3.65 C 5.96 g/m*3 3.65 C 3.46667 km/h
57 20-11-2020 08:00:00 3.89167 C 6.06 g/m*3 3.89 C 4.4 km/h
58 20-11-2020 09:00:00 4.34167 C 6.24 g/m*3 4.34 C 4.4 km/h
59 20-11-2020 10:00:00 5.06667 C 6.49 g/m*3 3.83 C 5.9 km/h
60 20-11-2020 11:00:00 5.875 C 6.69 g/m*3 4.68 C 6.14167 km/h
61 20-11-2020 12:00:00 6.45833 C 6.81 g/m*3 6.46 C 4.26667 km/h
62 20-11-2020 13:00:00 6.75833 C 6.86 g/m*3 6.76 C 3.60833 km/h
63 20-11-2020 14:00:00 6.625 C 6.52 g/m*3 5.9 C 5.08333 km/h
64 20-11-2020 15:00:00 6.78333 C 6.43 g/m*3 6.78 C 1.46667 km/h
65 20-11-2020 16:00:00 6.825 C 6.56 g/m*3 6.83 C 0 km/h
66 20-11-2020 17:00:00 5.68333 C 6.25 g/m*3 5.68 C 0.26667 km/h
67 20-11-2020 18:00:00 3.74167 C 5.61 g/m*3 3.74 C 0.53333 km/h
68 20-11-2020 19:00:00 2.35 C 5.25 g/m*3 2.35 C 0 km/h
69 20-11-2020 20:00:00 1.31667 C 4.96 g/m*3 1.32 C 0 km/h
70 20-11-2020 21:00:00 0.76667 C 4.82 g/m*3 0.77 C 0 km/h
71 20-11-2020 22:00:00 0.3 C 4.7 g/m*3 0.3 C 0 km/h
72 20-11-2020 23:00:00 0.275 C 4.7 g/m*3 0.28 C 0.26667 km/h
73 21-11-2020 00:00:00 0.25 C 4.72 g/m*3 0.25 C 0.66667 km/h
74 21-11-2020 01:00:00 0.25833 C 4.73 g/m*3 0.26 C 0.66667 km/h
75 21-11-2020 02:00:00 0.2 C 4.72 g/m*3 0.2 C 0.26667 km/h
Sensor: Nr:Datum:Temp:Abs-Feuchte:Windchill:Wind:
Aussen-T/F 76 21-11-2020 03:00:00 0.24167 C 4.73 g/m*3 0.24 C 0.93333 km/h
77 21-11-2020 04:00:00 0.14167 C 4.7 g/m*3 0.14 C 1.6 km/h
78 21-11-2020 05:00:00 0.175 C 4.71 g/m*3 0.18 C 1.2 km/h
79 21-11-2020 06:00:00 0.24167 C 4.75 g/m*3 0.24 C 0.53333 km/h
80 21-11-2020 07:00:00 0.31667 C 4.8 g/m*3 0.32 C 0 km/h
81 21-11-2020 08:00:00 0.525 C 4.87 g/m*3 0.53 C 0.13333 km/h
82 21-11-2020 09:00:00 1.14167 C 5.08 g/m*3 1.14 C 0 km/h
83 21-11-2020 10:00:00 2.175 C 5.45 g/m*3 2.17 C 0.4 km/h
84 21-11-2020 11:00:00 3.41667 C 5.93 g/m*3 3.42 C 0.4 km/h
85 21-11-2020 12:00:00 5.40833 C 6.34 g/m*3 3.6 C 8.05833 km/h
86 21-11-2020 13:00:00 7.15 C 6.14 g/m*3 5.58 C 8.34167 km/h
87 21-11-2020 14:00:00 7.85 C 6.11 g/m*3 5.97 C 10.5 km/h
88 21-11-2020 15:00:00 7.99167 C 6 g/m*3 6.35 C 9.39167 km/h
89 21-11-2020 16:00:00 7.89167 C 6.08 g/m*3 7.89 C 2.94167 km/h
90 21-11-2020 17:00:00 7.21667 C 6.29 g/m*3 7.22 C 0 km/h
91 21-11-2020 18:00:00 5.65 C 5.98 g/m*3 5.65 C 2.8 km/h
92 21-11-2020 19:00:00 4.89167 C 5.91 g/m*3 4.89 C 0.66667 km/h
93 21-11-2020 20:00:00 4.14167 C 5.68 g/m*3 4.14 C 3.89167 km/h
94 21-11-2020 21:00:00 4.10833 C 5.65 g/m*3 2.88 C 5.49167 km/h
95 21-11-2020 22:00:00 4.60833 C 5.84 g/m*3 3.17 C 6.3 km/h
96 21-11-2020 23:00:00 5.53333 C 6.04 g/m*3 2.72 C 13.03333 km/h
97 22-11-2020 00:00:00 5.78333 C 6.08 g/m*3 3 C 13.16667 km/h
98 22-11-2020 01:00:00 5.98333 C 6.16 g/m*3 3.5 C 11.7 km/h
99 22-11-2020 02:00:00 6.3 C 6.22 g/m*3 3.93 C 11.43333 km/h
100 22-11-2020 03:00:00 6.30833 C 6.22 g/m*3 3.76 C 12.5 km/h
Sensor: Nr:Datum:Temp:Abs-Feuchte:Windchill:Wind:
Aussen-T/F 101 22-11-2020 04:00:00 6.50833 C 6.23 g/m*3 3.47 C 15.96667 km/h
102 22-11-2020 05:00:00 6.6 C 6.3 g/m*3 3.85 C 14.1 km/h
103 22-11-2020 06:00:00 6.80833 C 6.41 g/m*3 4.17 C 13.7 km/h
104 22-11-2020 07:00:00 6.88333 C 6.44 g/m*3 4.2 C 14.1 km/h
105 22-11-2020 08:00:00 6.875 C 6.51 g/m*3 4.15 C 14.36667 km/h
106 22-11-2020 09:00:00 7.275 C 6.7 g/m*3 4.72 C 13.83333 km/h
107 22-11-2020 10:00:00 7.625 C 6.81 g/m*3 4.82 C 16.23333 km/h
108 22-11-2020 11:00:00 8.1 C 6.98 g/m*3 5.7 C 14.1 km/h
109 22-11-2020 12:00:00 8.45 C 7.09 g/m*3 6.11 C 14.23333 km/h
110 22-11-2020 13:00:00 8.78333 C 7.22 g/m*3 6.59 C 13.7 km/h
111 22-11-2020 14:00:00 8.95 C 7.29 g/m*3 7.24 C 10.75833 km/h
112 22-11-2020 15:00:00 8.975 C 7.32 g/m*3 7.04 C 12.225 km/h
113 22-11-2020 16:00:00 8.875 C 7.38 g/m*3 7.58 C 8.48333 km/h
114 22-11-2020 17:00:00 8.73333 C 7.37 g/m*3 7.36 C 8.75 km/h
115 22-11-2020 18:00:00 8.53333 C 7.27 g/m*3 7.02 C 9.28333 km/h
116 22-11-2020 19:00:00 8.41667 C 7.25 g/m*3 7.64 C 6.025 km/h
117 22-11-2020 20:00:00 8.34167 C 7.24 g/m*3 7.48 C 6.29167 km/h
118 22-11-2020 21:00:00 8.3 C 7.31 g/m*3 7.51 C 6.025 km/h
119 22-11-2020 22:00:00 8.3 C 7.34 g/m*3 7 C 8.06667 km/h
120 22-11-2020 23:00:00 8.3 C 7.42 g/m*3 7.55 C 5.9 km/h
121 23-11-2020 00:00:00 8.21667 C 7.41 g/m*3 6.99 C 7.66667 km/h
122 23-11-2020 01:00:00 8.1 C 7.43 g/m*3 7.44 C 5.49167 km/h
123 23-11-2020 02:00:00 8.025 C 7.37 g/m*3 6.93 C 6.98333 km/h
124 23-11-2020 03:00:00 7.99167 C 7.35 g/m*3 6.69 C 7.8 km/h
125 23-11-2020 04:00:00 7.83333 C 7.4 g/m*3 6.98 C 6.01667 km/h
Sensor: Nr:Datum:Temp:Abs-Feuchte:Windchill:Wind:
Aussen-T/F 126 23-11-2020 05:00:00 7.81667 C 7.39 g/m*3 7.82 C 4.01667 km/h
127 23-11-2020 06:00:00 7.79167 C 7.42 g/m*3 6.85 C 6.29167 km/h
128 23-11-2020 07:00:00 7.69167 C 7.38 g/m*3 6.19 C 8.475 km/h
129 23-11-2020 08:00:00 7.75833 C 7.44 g/m*3 6.66 C 6.83333 km/h
130 23-11-2020 09:00:00 7.875 C 7.61 g/m*3 6.87 C 6.55833 km/h
131 23-11-2020 10:00:00 8.28333 C 7.74 g/m*3 7.57 C 5.76667 km/h
132 23-11-2020 11:00:00 8.84167 C 7.86 g/m*3 8.84 C 4.8 km/h
133 23-11-2020 12:00:00 9.20833 C 7.94 g/m*3 9.21 C 3.73333 km/h
134 23-11-2020 13:00:00 9.46667 C 7.96 g/m*3 9.47 C 1.46667 km/h
135 23-11-2020 14:00:00 9.75833 C 7.96 g/m*3 9.76 C 3.86667 km/h
136 23-11-2020 15:00:00 9.76667 C 7.96 g/m*3 9.77 C 0.26667 km/h
137 23-11-2020 16:00:00 9.23333 C 7.82 g/m*3 9.23 C 0.13333 km/h
138 23-11-2020 17:00:00 7.48333 C 7.12 g/m*3 7.48 C 2.66667 km/h
139 23-11-2020 18:00:00 5.45 C 6.45 g/m*3 5.45 C 0.13333 km/h
140 23-11-2020 19:00:00 4.73333 C 6.28 g/m*3 4.73 C 0.53333 km/h
141 23-11-2020 20:00:00 4.69167 C 6.35 g/m*3 4.69 C 0 km/h
142 23-11-2020 21:00:00 6.075 C 7 g/m*3 6.08 C 0.4 km/h
143 23-11-2020 22:00:00 6.75833 C 7.32 g/m*3 6.76 C 0.8 km/h
144 23-11-2020 23:00:00 6.95833 C 7.42 g/m*3 6.96 C 0 km/h
145 24-11-2020 00:00:00 6.93333 C 7.32 g/m*3 6.93 C 1.33333 km/h
146 24-11-2020 01:00:00 6.65 C 7.12 g/m*3 6.65 C 0.4 km/h
147 24-11-2020 02:00:00 6.45 C 6.98 g/m*3 6.45 C 2.40833 km/h
148 24-11-2020 03:00:00 6.3 C 6.88 g/m*3 6.3 C 1.46667 km/h
149 24-11-2020 04:00:00 6.05 C 6.81 g/m*3 6.05 C 1.73333 km/h
150 24-11-2020 05:00:00 5.86667 C 6.76 g/m*3 5.87 C 0.66667 km/h
Sensor: Nr:Datum:Temp:Abs-Feuchte:Windchill:Wind:
Aussen-T/F 151 24-11-2020 06:00:00 5.775 C 6.72 g/m*3 5.78 C 0.4 km/h
152 24-11-2020 07:00:00 5.6 C 6.65 g/m*3 5.6 C 3.86667 km/h
153 24-11-2020 08:00:00 5.30833 C 6.52 g/m*3 5.31 C 3.46667 km/h
154 24-11-2020 09:00:00 5.24167 C 6.49 g/m*3 5.24 C 2.66667 km/h
155 24-11-2020 10:00:00 5.99167 C 6.78 g/m*3 5.99 C 1.06667 km/h
156 24-11-2020 11:00:00 6.675 C 6.93 g/m*3 6.68 C 2.675 km/h
157 24-11-2020 12:00:00 7.19167 C 6.98 g/m*3 7.19 C 2.93333 km/h
158 24-11-2020 13:00:00 7.275 C 6.97 g/m*3 7.28 C 4.81667 km/h
159 24-11-2020 14:00:00 6.93333 C 6.86 g/m*3 6.93 C 4.275 km/h
160 24-11-2020 15:00:00 6.525 C 6.75 g/m*3 6.53 C 4.00833 km/h
161 24-11-2020 16:00:00 6.46667 C 6.74 g/m*3 6.47 C 1.06667 km/h
162 24-11-2020 17:00:00 6.51667 C 6.76 g/m*3 6.52 C 1.06667 km/h
163 24-11-2020 18:00:00 6.4 C 6.71 g/m*3 6.4 C 1.33333 km/h
164 24-11-2020 19:00:00 6.4 C 6.73 g/m*3 6.4 C 0.53333 km/h
165 24-11-2020 20:00:00 6.4 C 6.78 g/m*3 6.4 C 0.26667 km/h
166 24-11-2020 21:00:00 6.375 C 6.77 g/m*3 6.38 C 0 km/h
167 24-11-2020 22:00:00 6.3 C 6.75 g/m*3 6.3 C 0 km/h
168 24-11-2020 23:00:00 6.275 C 6.72 g/m*3 6.28 C 0.26667 km/h
169 25-11-2020 00:00:00 6.28333 C 6.65 g/m*3 6.28 C 0.4 km/h
170 25-11-2020 01:00:00 6.175 C 6.61 g/m*3 6.18 C 0 km/h
171 25-11-2020 02:00:00 6.05833 C 6.56 g/m*3 6.06 C 0.26667 km/h
172 25-11-2020 03:00:00 5.85 C 6.52 g/m*3 5.85 C 0.53333 km/h
173 25-11-2020 04:00:00 5.53333 C 6.41 g/m*3 5.53 C 0.4 km/h
174 25-11-2020 05:00:00 4.4 C 5.99 g/m*3 4.4 C 0.66667 km/h
175 25-11-2020 06:00:00 3.43333 C 5.72 g/m*3 3.43 C 1.46667 km/h
Sensor: Nr:Datum:Temp:Abs-Feuchte:Windchill:Wind:
Aussen-T/F 176 25-11-2020 07:00:00 2.78333 C 5.53 g/m*3 2.78 C 0.66667 km/h
177 25-11-2020 08:00:00 2.54167 C 5.48 g/m*3 2.54 C 0 km/h
178 25-11-2020 09:00:00 2.93333 C 5.66 g/m*3 2.93 C 0 km/h
179 25-11-2020 10:00:00 4.025 C 6.14 g/m*3 4.03 C 0 km/h
180 25-11-2020 11:00:00 5.58333 C 6.8 g/m*3 5.58 C 0.4 km/h
181 25-11-2020 12:00:00 5.75 C 6.78 g/m*3 5.75 C 0.26667 km/h
182 25-11-2020 13:00:00 6.20833 C 6.98 g/m*3 6.21 C 1.06667 km/h
183 25-11-2020 14:00:00 6.625 C 7.08 g/m*3 6.63 C 0.13333 km/h
184 25-11-2020 15:00:00 6.38333 C 6.92 g/m*3 6.38 C 1.33333 km/h
185 25-11-2020 16:00:00 5.975 C 6.65 g/m*3 4.88 C 5.9 km/h
186 25-11-2020 17:00:00 5.01667 C 6.25 g/m*3 5.02 C 1.6 km/h
187 25-11-2020 18:00:00 4.1 C 5.96 g/m*3 4.1 C 0 km/h
188 25-11-2020 19:00:00 3.48333 C 5.78 g/m*3 3.48 C 0.13333 km/h
189 25-11-2020 20:00:00 3.13333 C 5.7 g/m*3 3.13 C 0.53333 km/h
190 25-11-2020 21:00:00 2.475 C 5.45 g/m*3 2.48 C 0.66667 km/h
191 25-11-2020 22:00:00 2.13333 C 5.33 g/m*3 2.13 C 0 km/h
192 25-11-2020 23:00:00 1.86667 C 5.27 g/m*3 1.87 C 0.4 km/h
193 26-11-2020 00:00:00 1.63333 C 5.2 g/m*3 1.63 C 0 km/h
194 26-11-2020 01:00:00 1.95 C 5.32 g/m*3 1.95 C 0 km/h
195 26-11-2020 02:00:00 2.6 C 5.59 g/m*3 2.6 C 0.13333 km/h
196 26-11-2020 03:00:00 2.81667 C 5.7 g/m*3 2.82 C 0 km/h
197 26-11-2020 04:00:00 3.06667 C 5.79 g/m*3 3.07 C 0.26667 km/h
198 26-11-2020 05:00:00 3.3 C 5.88 g/m*3 3.3 C 0.66667 km/h
199 26-11-2020 06:00:00 3.025 C 5.75 g/m*3 3.03 C 0.93333 km/h
200 26-11-2020 07:00:00 2.81667 C 5.68 g/m*3 2.82 C 0.93333 km/h
Sensor: Nr:Datum:Temp:Abs-Feuchte:Windchill:Wind:
Aussen-T/F 201 26-11-2020 08:00:00 2.59167 C 5.55 g/m*3 2.59 C 2.53333 km/h
202 26-11-2020 09:00:00 2.55833 C 5.57 g/m*3 2.56 C 1.86667 km/h
203 26-11-2020 10:00:00 2.81667 C 5.67 g/m*3 2.82 C 1.06667 km/h
204 26-11-2020 11:00:00 3.55 C 5.96 g/m*3 3.55 C 2 km/h
205 26-11-2020 12:00:00 4.25 C 6.15 g/m*3 4.25 C 2.13333 km/h
206 26-11-2020 13:00:00 4.74167 C 6.23 g/m*3 4.74 C 3.2 km/h
207 26-11-2020 14:00:00 5.09167 C 6.28 g/m*3 5.09 C 3.88333 km/h
208 26-11-2020 15:00:00 5.13333 C 6.25 g/m*3 5.13 C 2.4 km/h
209 26-11-2020 16:00:00 4.81667 C 6.16 g/m*3 4.82 C 1.60833 km/h
210 26-11-2020 17:00:00 4.38333 C 6.03 g/m*3 4.38 C 1.86667 km/h
211 26-11-2020 18:00:00 4.16667 C 5.98 g/m*3 4.17 C 1.6 km/h
212 26-11-2020 19:00:00 4.1 C 5.95 g/m*3 4.1 C 0.13333 km/h
213 26-11-2020 20:00:00 3.85 C 5.83 g/m*3 3.85 C 0.93333 km/h
214 26-11-2020 21:00:00 2.8 C 5.45 g/m*3 2.8 C 1.2 km/h
215 26-11-2020 22:00:00 2.86667 C 5.54 g/m*3 2.87 C 0.53333 km/h
216 26-11-2020 23:00:00 2.59167 C 5.44 g/m*3 2.59 C 0 km/h
217 27-11-2020 00:00:00 2.25833 C 5.35 g/m*3 2.26 C 0 km/h
218 27-11-2020 01:00:00 2.84167 C 5.59 g/m*3 2.84 C 0 km/h
219 27-11-2020 02:00:00 3 C 5.65 g/m*3 3 C 0 km/h
220 27-11-2020 03:00:00 2.91667 C 5.62 g/m*3 2.92 C 0 km/h
221 27-11-2020 04:00:00 2.85833 C 5.59 g/m*3 2.86 C 0.26667 km/h
222 27-11-2020 05:00:00 2.75833 C 5.56 g/m*3 2.76 C 0.4 km/h
223 27-11-2020 06:00:00 2.7 C 5.54 g/m*3 2.7 C 0.4 km/h
224 27-11-2020 07:00:00 2.68333 C 5.53 g/m*3 2.68 C 0.13333 km/h
225 27-11-2020 08:00:00 2.8 C 5.6 g/m*3 2.8 C 0.13333 km/h
Sensor: Nr:Datum:Temp:Abs-Feuchte:Windchill:Wind:
Aussen-T/F 226 27-11-2020 09:00:00 2.96667 C 5.69 g/m*3 2.97 C 0 km/h
227 27-11-2020 10:00:00 3.45833 C 5.83 g/m*3 3.46 C 3.6 km/h
228 27-11-2020 11:00:00 3.85 C 5.91 g/m*3 3.85 C 2.4 km/h
229 27-11-2020 12:00:00 4.01667 C 5.89 g/m*3 2.94 C 5.075 km/h
230 27-11-2020 13:00:00 4.15 C 5.9 g/m*3 4.15 C 3.06667 km/h
231 27-11-2020 14:00:00 4.425 C 6.02 g/m*3 4.43 C 2.53333 km/h
232 27-11-2020 15:00:00 4.675 C 6.11 g/m*3 4.68 C 2.8 km/h
233 27-11-2020 16:00:00 4.6 C 6.09 g/m*3 4.6 C 1.6 km/h
234 27-11-2020 17:00:00 4.6 C 6.12 g/m*3 4.6 C 1.33333 km/h
235 27-11-2020 18:00:00 4.51667 C 6.12 g/m*3 4.52 C 1.33333 km/h
236 27-11-2020 19:00:00 4.45 C 6.09 g/m*3 4.45 C 0.53333 km/h
237 27-11-2020 20:00:00 4.38333 C 6.08 g/m*3 4.38 C 0.53333 km/h
238 27-11-2020 21:00:00 4.39167 C 6.07 g/m*3 4.39 C 0.26667 km/h
239 27-11-2020 22:00:00 4.30833 C 6.04 g/m*3 4.31 C 0 km/h
240 27-11-2020 23:00:00 4.05833 C 5.93 g/m*3 4.06 C 2.4 km/h
241 28-11-2020 00:00:00 3.75833 C 5.81 g/m*3 3.76 C 0.93333 km/h
242 28-11-2020 01:00:00 3.59167 C 5.75 g/m*3 3.59 C 2.66667 km/h
243 28-11-2020 02:00:00 3.425 C 5.7 g/m*3 3.43 C 1.86667 km/h
244 28-11-2020 03:00:00 3.24167 C 5.66 g/m*3 3.24 C 0.8 km/h
245 28-11-2020 04:00:00 2.95 C 5.57 g/m*3 2.95 C 2.26667 km/h
246 28-11-2020 05:00:00 2.88333 C 5.55 g/m*3 2.88 C 1.2 km/h
247 28-11-2020 06:00:00 2.73333 C 5.49 g/m*3 2.73 C 1.46667 km/h
248 28-11-2020 07:00:00 2.56667 C 5.43 g/m*3 2.57 C 0.66667 km/h
249 28-11-2020 08:00:00 2.41667 C 5.37 g/m*3 2.42 C 0.53333 km/h
250 28-11-2020 09:00:00 2.55833 C 5.42 g/m*3 2.56 C 1.73333 km/h
Sensor: Nr:Datum:Temp:Abs-Feuchte:Windchill:Wind:
Aussen-T/F 251 28-11-2020 10:00:00 2.925 C 5.49 g/m*3 2.93 C 2.8 km/h
252 28-11-2020 11:00:00 3.43333 C 5.59 g/m*3 3.43 C 3.2 km/h
253 28-11-2020 12:00:00 3.80833 C 5.62 g/m*3 3.81 C 4 km/h
254 28-11-2020 13:00:00 4.04167 C 5.67 g/m*3 2.96 C 5.08333 km/h
255 28-11-2020 14:00:00 4.15 C 5.73 g/m*3 4.15 C 4.80833 km/h
256 28-11-2020 15:00:00 3.875 C 5.67 g/m*3 3.88 C 1.33333 km/h
257 28-11-2020 16:00:00 3.59167 C 5.61 g/m*3 3.59 C 1.06667 km/h
258 28-11-2020 17:00:00 3.33333 C 5.55 g/m*3 3.33 C 3.34167 km/h
259 28-11-2020 18:00:00 3.2 C 5.53 g/m*3 3.2 C 2.66667 km/h
260 28-11-2020 19:00:00 3.00833 C 5.48 g/m*3 3.01 C 3.74167 km/h
261 28-11-2020 20:00:00 3.075 C 5.56 g/m*3 3.08 C 1.33333 km/h
262 28-11-2020 21:00:00 3.35833 C 5.66 g/m*3 3.36 C 1.33333 km/h
263 28-11-2020 22:00:00 3.63333 C 5.77 g/m*3 3.63 C 0.4 km/h
264 28-11-2020 23:00:00 3.76667 C 5.8 g/m*3 3.77 C 1.06667 km/h
265 29-11-2020 00:00:00 3.85833 C 5.75 g/m*3 3.86 C 4 km/h
266 29-11-2020 01:00:00 3.54167 C 5.51 g/m*3 1.56 C 7.51667 km/h
267 29-11-2020 02:00:00 2.86667 C 5.16 g/m*3 2.87 C 4.40833 km/h
268 29-11-2020 03:00:00 2.7 C 5.07 g/m*3 2.7 C 4.425 km/h
269 29-11-2020 04:00:00 2.48333 C 4.94 g/m*3 2.48 C 4.15 km/h
270 29-11-2020 05:00:00 2.3 C 4.87 g/m*3 2.3 C 2.94167 km/h
271 29-11-2020 06:00:00 2.18333 C 4.8 g/m*3 2.18 C 2.66667 km/h
272 29-11-2020 07:00:00 1.91667 C 4.67 g/m*3 1.92 C 3.34167 km/h
273 29-11-2020 08:00:00 1.71667 C 4.56 g/m*3 1.72 C 4.29167 km/h
274 29-11-2020 09:00:00 1.58333 C 4.47 g/m*3 0.11 C 5.225 km/h
275 29-11-2020 10:00:00 1.775 C 4.48 g/m*3 0.11 C 5.75833 km/h
Sensor: Nr:Datum:Temp:Abs-Feuchte:Windchill:Wind:
Aussen-T/F 276 29-11-2020 11:00:00 2.09167 C 4.47 g/m*3 -0.14 C 7.51667 km/h
277 29-11-2020 12:00:00 2.3 C 4.48 g/m*3 0.61 C 6.03333 km/h
278 29-11-2020 13:00:00 2.58333 C 4.48 g/m*3 0.05 C 8.88333 km/h
279 29-11-2020 14:00:00 2.59167 C 4.44 g/m*3 1 C 5.88333 km/h
280 29-11-2020 15:00:00 2.3 C 4.37 g/m*3 2.3 C 3.20833 km/h
281 29-11-2020 16:00:00 0.56667 C 4.11 g/m*3 0.57 C 2.8 km/h
282 29-11-2020 17:00:00 -0.85833 C 3.96 g/m*3 -0.86 C 1.2 km/h
283 29-11-2020 18:00:00 -1.75 C 3.84 g/m*3 -1.75 C 0 km/h
284 29-11-2020 19:00:00 -2.34167 C 3.75 g/m*3 -2.34 C 0 km/h
285 29-11-2020 20:00:00 -2.71667 C 3.69 g/m*3 -2.72 C 0.26667 km/h
286 29-11-2020 21:00:00 -3.19167 C 3.59 g/m*3 -3.19 C 0 km/h
287 29-11-2020 22:00:00 -3.46667 C 3.54 g/m*3 -3.47 C 0.53333 km/h
288 29-11-2020 23:00:00 -3.55833 C 3.55 g/m*3 -3.56 C 0 km/h
289 30-11-2020 00:00:00 -3.9 C 3.46 g/m*3 -3.9 C 0 km/h
290 30-11-2020 01:00:00 -4.30833 C 3.36 g/m*3 -4.31 C 0 km/h
291 30-11-2020 02:00:00 -4.55 C 3.31 g/m*3 -4.55 C 0 km/h
292 30-11-2020 03:00:00 -4.9 C 3.22 g/m*3 -4.9 C 0 km/h
293 30-11-2020 04:00:00 -5.24167 C 3.15 g/m*3 -5.24 C 0 km/h
294 30-11-2020 05:00:00 -5.35833 C 3.13 g/m*3 -5.36 C 0 km/h
295 30-11-2020 06:00:00 -5.21667 C 3.17 g/m*3 -5.22 C 0.26667 km/h
296 30-11-2020 07:00:00 -5.125 C 3.19 g/m*3 -5.13 C 0.13333 km/h
297 30-11-2020 08:00:00 -5.76667 C 3.03 g/m*3 -5.77 C 0.4 km/h
298 30-11-2020 09:00:00 -5.45833 C 3.12 g/m*3 -5.46 C 0.13333 km/h
299 30-11-2020 10:00:00 -4.81667 C 3.28 g/m*3 -4.82 C 0.53333 km/h
300 30-11-2020 11:00:00 -3.65833 C 3.56 g/m*3 -3.66 C 1.2 km/h
Sensor: Nr:Datum:Temp:Abs-Feuchte:Windchill:Wind:
Aussen-T/F 301 30-11-2020 12:00:00 -2.33333 C 3.94 g/m*3 -2.33 C 1.73333 km/h
302 30-11-2020 13:00:00 0.00833 C 4.66 g/m*3 0.01 C 3.475 km/h
303 30-11-2020 14:00:00 2.01667 C 5.22 g/m*3 2.02 C 3.88333 km/h
304 30-11-2020 15:00:00 2.25833 C 4.99 g/m*3 2.26 C 3.88333 km/h
305 30-11-2020 16:00:00 2.9 C 4.91 g/m*3 0.23 C 9.675 km/h
306 30-11-2020 17:00:00 2.825 C 4.88 g/m*3 0.38 C 8.74167 km/h
307 30-11-2020 18:00:00 3.075 C 4.93 g/m*3 -0.54 C 14.49167 km/h
308 30-11-2020 19:00:00 2.575 C 5.09 g/m*3 -0.53 C 11.29167 km/h
309 30-11-2020 20:00:00 2.10833 C 5.15 g/m*3 -1.51 C 13.29167 km/h
310 30-11-2020 21:00:00 1.90833 C 5.18 g/m*3 -0.23 C 7.125 km/h
311 30-11-2020 22:00:00 1.89167 C 5.22 g/m*3 1.89 C 4.825 km/h
312 30-11-2020 23:00:00 1.575 C 5.11 g/m*3 -1.94 C 12.21667 km/h
313 01-12-2020 00:00:00 1.25833 C 5.02 g/m*3 -2.12 C 11.29167 km/h
314 01-12-2020 01:00:00 1.375 C 5.06 g/m*3 -1.59 C 9.675 km/h
315 01-12-2020 02:00:00 1.49167 C 5.1 g/m*3 -1.08 C 8.30833 km/h
316 01-12-2020 03:00:00 1.61667 C 5.14 g/m*3 -1.78 C 11.7 km/h
317 01-12-2020 04:00:00 1.73333 C 5.18 g/m*3 -1.33 C 10.35833 km/h
318 01-12-2020 05:00:00 1.81667 C 5.21 g/m*3 -0.37 C 7.24167 km/h
319 01-12-2020 06:00:00 1.99167 C 5.28 g/m*3 -0.33 C 7.78333 km/h
320 01-12-2020 07:00:00 2.11667 C 5.33 g/m*3 2.12 C 3.075 km/h
321 01-12-2020 08:00:00 2.125 C 5.38 g/m*3 2.13 C 1.875 km/h
322 01-12-2020 09:00:00 2.325 C 5.45 g/m*3 2.33 C 1.06667 km/h
323 01-12-2020 10:00:00 2.70833 C 5.6 g/m*3 2.71 C 0.4 km/h
324 01-12-2020 11:00:00 3.06667 C 5.73 g/m*3 3.07 C 0.13333 km/h
325 01-12-2020 12:00:00 3.46667 C 5.92 g/m*3 3.47 C 0.4 km/h
Sensor: Nr:Datum:Temp:Abs-Feuchte:Windchill:Wind:
Aussen-T/F 326 01-12-2020 13:00:00 4.00833 C 6.14 g/m*3 4.01 C 0 km/h
327 01-12-2020 14:00:00 4.26667 C 6.21 g/m*3 4.27 C 0.4 km/h
328 01-12-2020 15:00:00 3.91667 C 6.07 g/m*3 3.92 C 0 km/h
329 01-12-2020 16:00:00 3.60833 C 5.95 g/m*3 3.61 C 0 km/h
330 01-12-2020 17:00:00 3.54167 C 5.92 g/m*3 3.54 C 0.13333 km/h
331 01-12-2020 18:00:00 3.575 C 5.93 g/m*3 3.58 C 0.13333 km/h
332 01-12-2020 19:00:00 3.6 C 5.94 g/m*3 3.6 C 0 km/h
333 01-12-2020 20:00:00 3.675 C 5.97 g/m*3 3.68 C 0 km/h
334 01-12-2020 21:00:00 3.55 C 5.97 g/m*3 3.55 C 0.4 km/h
335 01-12-2020 22:00:00 3.39167 C 5.89 g/m*3 3.39 C 0.4 km/h
336 01-12-2020 23:00:00 3.24167 C 5.84 g/m*3 3.24 C 0 km/h
337 02-12-2020 00:00:00 3.2 C 5.85 g/m*3 3.2 C 0 km/h
338 02-12-2020 01:00:00 3.10833 C 5.81 g/m*3 3.11 C 0 km/h
339 02-12-2020 02:00:00 2.89167 C 5.73 g/m*3 2.89 C 0 km/h
340 02-12-2020 03:00:00 2.75 C 5.67 g/m*3 2.75 C 1.06667 km/h
341 02-12-2020 04:00:00 2.65 C 5.63 g/m*3 2.65 C 0 km/h
342 02-12-2020 05:00:00 2.55 C 5.59 g/m*3 2.55 C 0 km/h
343 02-12-2020 06:00:00 2.4 C 5.54 g/m*3 2.4 C 0 km/h
344 02-12-2020 07:00:00 2.4 C 5.54 g/m*3 2.4 C 0 km/h
345 02-12-2020 08:00:00 2.46667 C 5.56 g/m*3 2.47 C 0 km/h
346 02-12-2020 09:00:00 2.7 C 5.65 g/m*3 2.7 C 0.26667 km/h
347 02-12-2020 10:00:00 2.925 C 5.74 g/m*3 2.93 C 0.66667 km/h
348 02-12-2020 11:00:00 3.075 C 5.77 g/m*3 3.08 C 3.06667 km/h
349 02-12-2020 12:00:00 3.23333 C 5.8 g/m*3 3.23 C 1.46667 km/h
350 02-12-2020 13:00:00 3.53333 C 5.9 g/m*3 3.53 C 1.06667 km/h
Sensor: Nr:Datum:Temp:Abs-Feuchte:Windchill:Wind:
Aussen-T/F 351 02-12-2020 14:00:00 3.83333 C 5.95 g/m*3 3.83 C 2.55 km/h
352 02-12-2020 15:00:00 3.65833 C 5.8 g/m*3 3.66 C 0.26667 km/h
353 02-12-2020 16:00:00 3.375 C 5.68 g/m*3 3.38 C 0.13333 km/h
354 02-12-2020 17:00:00 2.94167 C 5.55 g/m*3 2.94 C 0.66667 km/h
355 02-12-2020 18:00:00 2.6 C 5.44 g/m*3 2.6 C 0.26667 km/h
356 02-12-2020 19:00:00 2.425 C 5.4 g/m*3 2.42 C 0.13333 km/h
357 02-12-2020 20:00:00 2.4 C 5.42 g/m*3 2.4 C 0 km/h
358 02-12-2020 21:00:00 2.38333 C 5.42 g/m*3 2.38 C 0.4 km/h
359 02-12-2020 22:00:00 2.36667 C 5.41 g/m*3 2.37 C 0 km/h
360 02-12-2020 23:00:00 2.26667 C 5.38 g/m*3 2.27 C 0 km/h
361 03-12-2020 00:00:00 2.28333 C 5.38 g/m*3 2.28 C 1.33333 km/h
362 03-12-2020 01:00:00 2.33333 C 5.4 g/m*3 2.33 C 2.13333 km/h
363 03-12-2020 02:00:00 2.575 C 5.49 g/m*3 2.58 C 3.33333 km/h
364 03-12-2020 03:00:00 2.6 C 5.5 g/m*3 2.6 C 1.33333 km/h
365 03-12-2020 04:00:00 2.51667 C 5.47 g/m*3 2.52 C 3.73333 km/h
366 03-12-2020 05:00:00 2.44167 C 5.49 g/m*3 2.44 C 0.26667 km/h
367 03-12-2020 06:00:00 2.575 C 5.55 g/m*3 2.58 C 0 km/h
368 03-12-2020 07:00:00 2.7 C 5.59 g/m*3 2.7 C 0.26667 km/h
369 03-12-2020 08:00:00 2.74167 C 5.61 g/m*3 2.74 C 0.66667 km/h
370 03-12-2020 09:00:00 3.18333 C 5.77 g/m*3 3.18 C 2 km/h
371 03-12-2020 10:00:00 4.05 C 5.97 g/m*3 4.05 C 3.475 km/h
372 03-12-2020 11:00:00 4.43333 C 6 g/m*3 3.41 C 5.08333 km/h
373 03-12-2020 12:00:00 4.79167 C 6.04 g/m*3 3.66 C 5.49167 km/h
374 03-12-2020 13:00:00 5.14167 C 6.08 g/m*3 3.75 C 6.425 km/h
375 03-12-2020 14:00:00 5.05833 C 5.99 g/m*3 3.83 C 5.89167 km/h
Sensor: Nr:Datum:Temp:Abs-Feuchte:Windchill:Wind:
Aussen-T/F 376 03-12-2020 15:00:00 4.7 C 5.91 g/m*3 4.7 C 1.86667 km/h
377 03-12-2020 16:00:00 4.46667 C 5.87 g/m*3 4.47 C 1.2 km/h
378 03-12-2020 17:00:00 4.28333 C 5.85 g/m*3 4.28 C 4.69167 km/h
379 03-12-2020 18:00:00 4.3 C 5.81 g/m*3 2.91 C 6.025 km/h
380 03-12-2020 19:00:00 4.25 C 5.74 g/m*3 2.95 C 5.75 km/h
381 03-12-2020 20:00:00 4.00833 C 5.6 g/m*3 2.57 C 6.03333 km/h
382 03-12-2020 21:00:00 3.825 C 5.53 g/m*3 1.93 C 7.375 km/h
383 03-12-2020 22:00:00 3.55833 C 5.45 g/m*3 1.58 C 7.525 km/h
384 03-12-2020 23:00:00 3.375 C 5.5 g/m*3 1.8 C 6.16667 km/h
385 04-12-2020 00:00:00 3.2 C 5.48 g/m*3 1.08 C 7.775 km/h
386 04-12-2020 01:00:00 3.00833 C 5.41 g/m*3 -0.09 C 11.69167 km/h
387 04-12-2020 02:00:00 2.875 C 5.39 g/m*3 -0.17 C 11.29167 km/h
388 04-12-2020 03:00:00 3.05833 C 5.54 g/m*3 0.61 C 8.88333 km/h
389 04-12-2020 04:00:00 3.23333 C 5.62 g/m*3 0.04 C 12.36667 km/h
390 04-12-2020 05:00:00 3.40833 C 5.7 g/m*3 2.02 C 5.64167 km/h
391 04-12-2020 06:00:00 3.675 C 5.89 g/m*3 3.68 C 4.00833 km/h
392 04-12-2020 07:00:00 3.775 C 5.95 g/m*3 3.78 C 2.675 km/h
393 04-12-2020 08:00:00 4.10833 C 6.14 g/m*3 4.11 C 3.35 km/h
394 04-12-2020 09:00:00 4.63333 C 6.37 g/m*3 4.63 C 3.6 km/h
395 04-12-2020 10:00:00 5.36667 C 6.68 g/m*3 5.37 C 3.475 km/h
396 04-12-2020 11:00:00 6.05 C 6.98 g/m*3 6.05 C 2.675 km/h
397 04-12-2020 12:00:00 6.975 C 7.25 g/m*3 6.98 C 1.6 km/h
398 04-12-2020 13:00:00 7.325 C 7.29 g/m*3 7.33 C 2.26667 km/h
399 04-12-2020 14:00:00 7.64167 C 7.39 g/m*3 7.64 C 0.13333 km/h
400 04-12-2020 15:00:00 7.05 C 7.16 g/m*3 7.05 C 0.93333 km/h
Sensor: Nr:Datum:Temp:Abs-Feuchte:Windchill:Wind:
Aussen-T/F 401 04-12-2020 16:00:00 6.11667 C 6.8 g/m*3 6.12 C 2 km/h
402 04-12-2020 17:00:00 5.19167 C 6.46 g/m*3 5.19 C 3.2 km/h
403 04-12-2020 18:00:00 4.5 C 6.22 g/m*3 4.5 C 4.53333 km/h
404 04-12-2020 19:00:00 3.68333 C 5.92 g/m*3 3.68 C 3.33333 km/h
405 04-12-2020 20:00:00 3.84167 C 6.03 g/m*3 3.84 C 0 km/h
406 04-12-2020 21:00:00 3.34167 C 5.84 g/m*3 3.34 C 0 km/h
407 04-12-2020 22:00:00 3.35833 C 5.85 g/m*3 3.36 C 0 km/h
408 04-12-2020 23:00:00 4.35 C 6.31 g/m*3 4.35 C 1.60833 km/h
409 05-12-2020 00:00:00 4.50833 C 6.38 g/m*3 4.51 C 0 km/h
410 05-12-2020 01:00:00 4.41667 C 6.34 g/m*3 4.42 C 0 km/h
411 05-12-2020 02:00:00 4.40833 C 6.34 g/m*3 4.41 C 0 km/h
412 05-12-2020 03:00:00 4.49167 C 6.37 g/m*3 4.49 C 0 km/h
413 05-12-2020 04:00:00 4.29167 C 6.28 g/m*3 4.29 C 0 km/h
414 05-12-2020 05:00:00 3.8 C 6.05 g/m*3 3.8 C 0 km/h
415 05-12-2020 06:00:00 3.75833 C 6.07 g/m*3 3.76 C 0 km/h
416 05-12-2020 07:00:00 3.74167 C 6.06 g/m*3 3.74 C 0 km/h
417 05-12-2020 08:00:00 3.73333 C 6.06 g/m*3 3.73 C 0 km/h
418 05-12-2020 09:00:00 4.46667 C 6.36 g/m*3 4.47 C 0 km/h
419 05-12-2020 10:00:00 4.575 C 6.41 g/m*3 4.58 C 0 km/h
420 05-12-2020 11:00:00 4.45833 C 6.36 g/m*3 4.46 C 2.93333 km/h
421 05-12-2020 12:00:00 5.35833 C 6.77 g/m*3 5.36 C 1.46667 km/h
422 05-12-2020 13:00:00 5.45 C 6.44 g/m*3 5.45 C 4.81667 km/h
423 05-12-2020 14:00:00 5.69167 C 6.46 g/m*3 5.69 C 1.06667 km/h
424 05-12-2020 15:00:00 4.29167 C 5.96 g/m*3 4.29 C 3.46667 km/h
425 05-12-2020 16:00:00 3.075 C 5.59 g/m*3 3.08 C 0.53333 km/h
Sensor: Nr:Datum:Temp:Abs-Feuchte:Windchill:Wind:
Aussen-T/F 426 05-12-2020 17:00:00 2.70833 C 5.52 g/m*3 2.71 C 2.93333 km/h
427 05-12-2020 18:00:00 2.86667 C 5.62 g/m*3 2.87 C 0.13333 km/h
428 05-12-2020 19:00:00 3.63333 C 5.96 g/m*3 3.63 C 0 km/h
429 05-12-2020 20:00:00 3.88333 C 6.06 g/m*3 3.88 C 0 km/h
430 05-12-2020 21:00:00 4.075 C 6.13 g/m*3 4.08 C 0 km/h
431 05-12-2020 22:00:00 3.94167 C 6.08 g/m*3 3.94 C 0.53333 km/h
432 05-12-2020 23:00:00 3.44167 C 5.82 g/m*3 3.44 C 1.34167 km/h
433 06-12-2020 00:00:00 2.53333 C 5.47 g/m*3 2.53 C 0.53333 km/h
434 06-12-2020 01:00:00 2.24167 C 5.4 g/m*3 2.24 C 0.13333 km/h
435 06-12-2020 02:00:00 2.3 C 5.44 g/m*3 2.3 C 0 km/h
436 06-12-2020 03:00:00 2.81667 C 5.64 g/m*3 2.82 C 0.26667 km/h
437 06-12-2020 04:00:00 3.15833 C 5.77 g/m*3 3.16 C 0 km/h
438 06-12-2020 05:00:00 3.2 C 5.8 g/m*3 3.2 C 0 km/h
439 06-12-2020 06:00:00 3.29167 C 5.84 g/m*3 3.29 C 0 km/h
440 06-12-2020 07:00:00 3.3 C 5.82 g/m*3 3.3 C 0 km/h
441 06-12-2020 08:00:00 3.31667 C 5.85 g/m*3 3.32 C 0 km/h
442 06-12-2020 09:00:00 3.59167 C 6 g/m*3 3.59 C 0 km/h
443 06-12-2020 10:00:00 3.91667 C 6.13 g/m*3 3.92 C 1.06667 km/h
444 06-12-2020 11:00:00 4.18333 C 6.24 g/m*3 4.18 C 0.8 km/h
445 06-12-2020 12:00:00 4.45833 C 6.36 g/m*3 4.46 C 1.46667 km/h
446 06-12-2020 13:00:00 4.775 C 6.47 g/m*3 4.78 C 1.6 km/h
447 06-12-2020 14:00:00 4.9 C 6.48 g/m*3 4.9 C 0.4 km/h
448 06-12-2020 15:00:00 5.00833 C 6.54 g/m*3 5.01 C 0 km/h
449 06-12-2020 16:00:00 4.94167 C 6.5 g/m*3 4.94 C 0 km/h
450 06-12-2020 17:00:00 4.8 C 6.47 g/m*3 4.8 C 1.73333 km/h
Sensor: Nr:Datum:Temp:Abs-Feuchte:Windchill:Wind:
Aussen-T/F 451 06-12-2020 18:00:00 4.75 C 6.42 g/m*3 4.75 C 2.13333 km/h
452 06-12-2020 19:00:00 4.7 C 6.44 g/m*3 4.7 C 0.66667 km/h
453 06-12-2020 20:00:00 4.625 C 6.4 g/m*3 4.63 C 1.6 km/h
454 06-12-2020 21:00:00 4.575 C 6.41 g/m*3 4.58 C 2 km/h
455 06-12-2020 22:00:00 4.5 C 6.38 g/m*3 4.5 C 0 km/h
456 06-12-2020 23:00:00 4.41667 C 6.34 g/m*3 4.42 C 0 km/h
457 07-12-2020 00:00:00 4.325 C 6.29 g/m*3 4.33 C 0.8 km/h
458 07-12-2020 01:00:00 4.3 C 6.29 g/m*3 4.3 C 0.8 km/h
459 07-12-2020 02:00:00 4.20833 C 6.25 g/m*3 4.21 C 0.66667 km/h
460 07-12-2020 03:00:00 4.1 C 6.21 g/m*3 4.1 C 1.73333 km/h
461 07-12-2020 04:00:00 4 C 6.17 g/m*3 4 C 0.93333 km/h
462 07-12-2020 05:00:00 3.875 C 6.12 g/m*3 3.88 C 0.66667 km/h
463 07-12-2020 06:00:00 3.9 C 6.13 g/m*3 3.9 C 3.2 km/h
464 07-12-2020 07:00:00 3.81667 C 6.09 g/m*3 3.82 C 1.46667 km/h
465 07-12-2020 08:00:00 3.825 C 6.1 g/m*3 3.83 C 4.80833 km/h
466 07-12-2020 09:00:00 3.94167 C 6.14 g/m*3 2.85 C 5.08333 km/h
467 07-12-2020 10:00:00 4.46667 C 6.36 g/m*3 4.47 C 4.13333 km/h
468 07-12-2020 11:00:00 5.05 C 6.58 g/m*3 3.18 C 8.05 km/h
469 07-12-2020 12:00:00 5.55833 C 6.63 g/m*3 3.55 C 9 km/h
470 07-12-2020 13:00:00 6.125 C 6.58 g/m*3 4.15 C 9.29167 km/h
471 07-12-2020 14:00:00 6.28333 C 6.56 g/m*3 6.28 C 3.60833 km/h
472 07-12-2020 15:00:00 5.9 C 6.49 g/m*3 5.9 C 2.26667 km/h
473 07-12-2020 16:00:00 5.325 C 6.37 g/m*3 5.33 C 1.06667 km/h
474 07-12-2020 17:00:00 4.86667 C 6.29 g/m*3 4.87 C 1.06667 km/h
475 07-12-2020 18:00:00 4.44167 C 6.15 g/m*3 4.44 C 0.8 km/h
Sensor: Nr:Datum:Temp:Abs-Feuchte:Windchill:Wind:
Aussen-T/F 476 07-12-2020 19:00:00 3.15833 C 5.64 g/m*3 3.16 C 3.2 km/h
477 07-12-2020 20:00:00 1.88333 C 5.21 g/m*3 1.88 C 4.4 km/h
478 07-12-2020 21:00:00 1.85 C 5.27 g/m*3 1.85 C 1.46667 km/h
479 07-12-2020 22:00:00 2.51667 C 5.52 g/m*3 2.52 C 0 km/h
480 07-12-2020 23:00:00 2.80833 C 5.63 g/m*3 2.81 C 0 km/h
481 08-12-2020 00:00:00 3.075 C 5.74 g/m*3 3.08 C 0 km/h
482 08-12-2020 01:00:00 3.10833 C 5.75 g/m*3 3.11 C 0 km/h
483 08-12-2020 02:00:00 3.00833 C 5.72 g/m*3 3.01 C 0 km/h
484 08-12-2020 03:00:00 2.875 C 5.69 g/m*3 2.88 C 0.26667 km/h
485 08-12-2020 04:00:00 3.225 C 5.86 g/m*3 3.23 C 0 km/h
486 08-12-2020 05:00:00 3.11667 C 5.76 g/m*3 3.12 C 0.8 km/h
487 08-12-2020 06:00:00 2.93333 C 5.67 g/m*3 2.93 C 0.66667 km/h
488 08-12-2020 07:00:00 2.9 C 5.61 g/m*3 2.9 C 0 km/h
489 08-12-2020 08:00:00 2.66667 C 5.49 g/m*3 2.67 C 0.4 km/h
490 08-12-2020 09:00:00 2.75833 C 5.56 g/m*3 2.76 C 0 km/h
491 08-12-2020 10:00:00 3.40833 C 5.71 g/m*3 3.41 C 3.75 km/h
492 08-12-2020 11:00:00 4.35833 C 5.81 g/m*3 4.36 C 4.275 km/h
493 08-12-2020 12:00:00 4.95 C 5.79 g/m*3 4.95 C 4.55833 km/h
494 08-12-2020 13:00:00 5.35833 C 5.83 g/m*3 4.36 C 5.35833 km/h
495 08-12-2020 14:00:00 5.71667 C 5.9 g/m*3 5.72 C 4.81667 km/h
496 08-12-2020 15:00:00 5.78333 C 6.05 g/m*3 5.78 C 0.93333 km/h
497 08-12-2020 16:00:00 5.175 C 6.07 g/m*3 5.18 C 0.66667 km/h
498 08-12-2020 17:00:00 4.45 C 5.97 g/m*3 4.45 C 1.6 km/h
499 08-12-2020 18:00:00 3.625 C 5.73 g/m*3 3.63 C 1.2 km/h
500 08-12-2020 19:00:00 2.8 C 5.46 g/m*3 2.8 C 0.26667 km/h
Sensor: Nr:Datum:Temp:Abs-Feuchte:Windchill:Wind:
Aussen-T/F 501 08-12-2020 20:00:00 2.3 C 5.33 g/m*3 2.3 C 0 km/h
502 08-12-2020 21:00:00 1.79167 C 5.17 g/m*3 1.79 C 0 km/h
503 08-12-2020 22:00:00 0.94167 C 4.91 g/m*3 0.94 C 0 km/h
504 08-12-2020 23:00:00 0.475 C 4.76 g/m*3 0.48 C 0 km/h
505 09-12-2020 00:00:00 0.175 C 4.68 g/m*3 0.18 C 0 km/h
506 09-12-2020 01:00:00 0.84167 C 4.93 g/m*3 0.84 C 0 km/h
507 09-12-2020 02:00:00 1.35833 C 5.11 g/m*3 1.36 C 0 km/h
508 09-12-2020 03:00:00 1.69167 C 5.26 g/m*3 1.69 C 0 km/h
509 09-12-2020 04:00:00 2.31667 C 5.51 g/m*3 2.32 C 1.73333 km/h
510 09-12-2020 05:00:00 2.80833 C 5.68 g/m*3 2.81 C 3.20833 km/h
511 09-12-2020 06:00:00 3 C 5.66 g/m*3 3 C 3.34167 km/h
512 09-12-2020 07:00:00 3.175 C 5.57 g/m*3 1.66 C 5.90833 km/h
513 09-12-2020 08:00:00 3.24167 C 5.54 g/m*3 3.24 C 3.20833 km/h
514 09-12-2020 09:00:00 3.21667 C 5.55 g/m*3 3.22 C 0.26667 km/h
515 09-12-2020 10:00:00 3.425 C 5.62 g/m*3 3.43 C 0.13333 km/h
516 09-12-2020 11:00:00 3.75 C 5.66 g/m*3 3.75 C 0.66667 km/h
517 09-12-2020 12:00:00 4.16667 C 5.74 g/m*3 4.17 C 0.8 km/h
518 09-12-2020 13:00:00 4.59167 C 5.78 g/m*3 3.34 C 5.75833 km/h
519 09-12-2020 14:00:00 4.525 C 5.53 g/m*3 2.42 C 8.6 km/h
520 09-12-2020 15:00:00 3.775 C 5.32 g/m*3 2.4 C 5.75833 km/h
521 09-12-2020 16:00:00 2.30833 C 5 g/m*3 2.31 C 4.13333 km/h
522 09-12-2020 17:00:00 0.85833 C 4.69 g/m*3 0.86 C 2.13333 km/h
523 09-12-2020 18:00:00 -0.05833 C 4.47 g/m*3 -0.06 C 1.2 km/h
524 09-12-2020 19:00:00 -0.25833 C 4.49 g/m*3 -0.26 C 3.33333 km/h
525 09-12-2020 20:00:00 0.31667 C 4.7 g/m*3 0.32 C 1.6 km/h
Sensor: Nr:Datum:Temp:Abs-Feuchte:Windchill:Wind:
Aussen-T/F 526 09-12-2020 21:00:00 0.70833 C 4.8 g/m*3 0.71 C 1.06667 km/h
527 09-12-2020 22:00:00 1.03333 C 4.86 g/m*3 1.03 C 1.2 km/h
528 09-12-2020 23:00:00 1.19167 C 4.87 g/m*3 1.19 C 1.6 km/h
529 10-12-2020 00:00:00 1.36667 C 4.88 g/m*3 1.37 C 1.06667 km/h
530 10-12-2020 01:00:00 1.41667 C 4.9 g/m*3 1.42 C 0.53333 km/h
531 10-12-2020 02:00:00 1.55833 C 4.95 g/m*3 1.56 C 0.66667 km/h
532 10-12-2020 03:00:00 1.59167 C 4.94 g/m*3 1.59 C 1.33333 km/h
533 10-12-2020 04:00:00 0.81667 C 4.67 g/m*3 0.82 C 1.2 km/h
534 10-12-2020 05:00:00 -0.3 C 4.39 g/m*3 -0.3 C 0.26667 km/h
535 10-12-2020 06:00:00 -0.875 C 4.28 g/m*3 -0.88 C 0 km/h
536 10-12-2020 07:00:00 -1.375 C 4.14 g/m*3 -1.38 C 0 km/h
537 10-12-2020 08:00:00 -1.78333 C 4.06 g/m*3 -1.78 C 0 km/h
538 10-12-2020 09:00:00 -1.85 C 4.05 g/m*3 -1.85 C 0 km/h
539 10-12-2020 10:00:00 -1.39167 C 4.22 g/m*3 -1.39 C 0 km/h
540 10-12-2020 11:00:00 -0.50833 C 4.49 g/m*3 -0.51 C 2.4 km/h
541 10-12-2020 12:00:00 0.05 C 4.67 g/m*3 0.05 C 1.06667 km/h
542 10-12-2020 13:00:00 0.46667 C 4.82 g/m*3 0.47 C 0.26667 km/h
543 10-12-2020 14:00:00 1.175 C 5.05 g/m*3 1.18 C 0.8 km/h
544 10-12-2020 15:00:00 1.1 C 4.9 g/m*3 1.1 C 1.46667 km/h
545 10-12-2020 16:00:00 1.175 C 4.84 g/m*3 1.18 C 0.26667 km/h
546 10-12-2020 17:00:00 0.925 C 4.74 g/m*3 0.93 C 0 km/h
547 10-12-2020 18:00:00 0.74167 C 4.67 g/m*3 0.74 C 0 km/h
548 10-12-2020 19:00:00 0.63333 C 4.67 g/m*3 0.63 C 0 km/h
549 10-12-2020 20:00:00 0.81667 C 4.77 g/m*3 0.82 C 0 km/h
550 10-12-2020 21:00:00 0.99167 C 4.82 g/m*3 0.99 C 0.26667 km/h
Sensor: Nr:Datum:Temp:Abs-Feuchte:Windchill:Wind:
Aussen-T/F 551 10-12-2020 22:00:00 1.175 C 4.89 g/m*3 1.18 C 0.13333 km/h
552 10-12-2020 23:00:00 1.23333 C 4.87 g/m*3 1.23 C 0.8 km/h
553 11-12-2020 00:00:00 1.39167 C 4.9 g/m*3 1.39 C 0.26667 km/h
554 11-12-2020 01:00:00 1.2 C 4.82 g/m*3 1.2 C 0 km/h
555 11-12-2020 02:00:00 0.325 C 4.59 g/m*3 0.33 C 0.66667 km/h
556 11-12-2020 03:00:00 0.925 C 4.82 g/m*3 0.93 C 2.54167 km/h
557 11-12-2020 04:00:00 0.65833 C 4.69 g/m*3 0.66 C 1.2 km/h
558 11-12-2020 05:00:00 0.15833 C 4.57 g/m*3 0.16 C 1.86667 km/h
559 11-12-2020 06:00:00 0.54167 C 4.74 g/m*3 0.54 C 4.55 km/h
560 11-12-2020 07:00:00 1.64167 C 4.93 g/m*3 1.64 C 3.34167 km/h
561 11-12-2020 08:00:00 2.14167 C 4.96 g/m*3 2.14 C 4.825 km/h
562 11-12-2020 09:00:00 2.575 C 5.07 g/m*3 0.97 C 5.9 km/h
563 11-12-2020 10:00:00 3.125 C 5.21 g/m*3 3.13 C 4.00833 km/h
564 11-12-2020 11:00:00 3.44167 C 5.38 g/m*3 1.83 C 6.29167 km/h
565 11-12-2020 12:00:00 3.7 C 5.54 g/m*3 2.47 C 5.34167 km/h
566 11-12-2020 13:00:00 4.44167 C 5.66 g/m*3 2.85 C 6.71667 km/h
567 11-12-2020 14:00:00 4.49167 C 5.58 g/m*3 2.28 C 9.025 km/h
568 11-12-2020 15:00:00 4.05833 C 5.56 g/m*3 2.16 C 7.51667 km/h
569 11-12-2020 16:00:00 3.63333 C 5.58 g/m*3 1.91 C 6.71667 km/h
570 11-12-2020 17:00:00 3.71667 C 5.66 g/m*3 1.47 C 8.58333 km/h
571 11-12-2020 18:00:00 3.68333 C 5.71 g/m*3 2.15 C 6.16667 km/h
572 11-12-2020 19:00:00 3.79167 C 5.76 g/m*3 2.01 C 6.98333 km/h
573 11-12-2020 20:00:00 3.94167 C 5.83 g/m*3 3.94 C 1.6 km/h
574 11-12-2020 21:00:00 3.925 C 5.86 g/m*3 3.93 C 0 km/h
575 11-12-2020 22:00:00 3.825 C 5.85 g/m*3 3.83 C 0 km/h
Sensor: Nr:Datum:Temp:Abs-Feuchte:Windchill:Wind:
Aussen-T/F 576 11-12-2020 23:00:00 3.85 C 5.92 g/m*3 3.85 C 0 km/h
577 12-12-2020 00:00:00 3.81667 C 5.94 g/m*3 3.82 C 0.4 km/h
578 12-12-2020 01:00:00 4.05 C 6.06 g/m*3 4.05 C 0.66667 km/h
579 12-12-2020 02:00:00 4.40833 C 6.22 g/m*3 4.41 C 1.2 km/h
580 12-12-2020 03:00:00 4.80833 C 6.38 g/m*3 4.81 C 0 km/h
581 12-12-2020 04:00:00 4.9 C 6.41 g/m*3 4.9 C 0 km/h
582 12-12-2020 05:00:00 4.90833 C 6.42 g/m*3 4.91 C 0 km/h
583 12-12-2020 06:00:00 5.05833 C 6.48 g/m*3 5.06 C 0 km/h
584 12-12-2020 07:00:00 5.15 C 6.58 g/m*3 5.15 C 0.4 km/h
585 12-12-2020 08:00:00 5.28333 C 6.65 g/m*3 5.28 C 0 km/h
586 12-12-2020 09:00:00 5.625 C 6.8 g/m*3 5.63 C 0 km/h
587 12-12-2020 10:00:00 6.16667 C 7.03 g/m*3 6.17 C 0 km/h
588 12-12-2020 11:00:00 6.80833 C 7.18 g/m*3 6.81 C 0 km/h
589 12-12-2020 12:00:00 7.4 C 7.31 g/m*3 7.4 C 0.4 km/h
590 12-12-2020 13:00:00 7.7 C 7.38 g/m*3 7.7 C 0.66667 km/h
591 12-12-2020 14:00:00 7.68333 C 7.44 g/m*3 7.68 C 0.26667 km/h
592 12-12-2020 15:00:00 7.475 C 7.53 g/m*3 7.48 C 0 km/h
593 12-12-2020 16:00:00 7.2 C 7.43 g/m*3 7.2 C 0 km/h
594 12-12-2020 17:00:00 6.7 C 7.21 g/m*3 6.7 C 0 km/h
595 12-12-2020 18:00:00 6.66667 C 7.23 g/m*3 6.67 C 0 km/h
596 12-12-2020 19:00:00 6.36667 C 7.12 g/m*3 6.37 C 0 km/h
597 12-12-2020 20:00:00 6.66667 C 7.28 g/m*3 6.67 C 0.13333 km/h
598 12-12-2020 21:00:00 6.675 C 7.29 g/m*3 6.68 C 0 km/h
599 12-12-2020 22:00:00 6.55 C 7.27 g/m*3 6.55 C 0 km/h
600 12-12-2020 23:00:00 6.2 C 7.1 g/m*3 6.2 C 0 km/h
Sensor: Nr:Datum:Temp:Abs-Feuchte:Windchill:Wind:
Aussen-T/F 601 13-12-2020 00:00:00 6.35833 C 7.21 g/m*3 6.36 C 0 km/h
602 13-12-2020 01:00:00 6.18333 C 7.13 g/m*3 6.18 C 0 km/h
603 13-12-2020 02:00:00 6.40833 C 7.23 g/m*3 6.41 C 0 km/h
604 13-12-2020 03:00:00 6.83333 C 7.43 g/m*3 6.83 C 0.13333 km/h
605 13-12-2020 04:00:00 7.23333 C 7.63 g/m*3 7.23 C 2.8 km/h
606 13-12-2020 05:00:00 7.3 C 7.66 g/m*3 7.3 C 0 km/h
607 13-12-2020 06:00:00 7.275 C 7.65 g/m*3 7.28 C 1.46667 km/h
608 13-12-2020 07:00:00 7.30833 C 7.67 g/m*3 7.31 C 2.53333 km/h
609 13-12-2020 08:00:00 7.21667 C 7.62 g/m*3 7.22 C 2.4 km/h
610 13-12-2020 09:00:00 7.24167 C 7.64 g/m*3 7.24 C 1.2 km/h
611 13-12-2020 10:00:00 6.45833 C 7.25 g/m*3 6.46 C 2.53333 km/h
612 13-12-2020 11:00:00 6.39167 C 7.22 g/m*3 5.31 C 6.03333 km/h
613 13-12-2020 12:00:00 6.6 C 7.2 g/m*3 5.47 C 6.31667 km/h
614 13-12-2020 13:00:00 7.825 C 7.25 g/m*3 7.09 C 5.61667 km/h
615 13-12-2020 14:00:00 7.675 C 7.03 g/m*3 7.68 C 4.28333 km/h
616 13-12-2020 15:00:00 6.46667 C 6.66 g/m*3 6.47 C 4.26667 km/h
617 13-12-2020 16:00:00 5.325 C 6.31 g/m*3 5.33 C 4.93333 km/h
618 13-12-2020 17:00:00 4.04167 C 5.9 g/m*3 4.04 C 4.8 km/h
619 13-12-2020 18:00:00 3.5 C 5.79 g/m*3 3.5 C 0 km/h
620 13-12-2020 19:00:00 3.6 C 5.88 g/m*3 3.6 C 0 km/h
621 13-12-2020 20:00:00 3.66667 C 5.93 g/m*3 3.67 C 0.4 km/h
622 13-12-2020 21:00:00 4.24167 C 6.16 g/m*3 4.24 C 1.06667 km/h
623 13-12-2020 22:00:00 3.49167 C 5.78 g/m*3 3.49 C 1.73333 km/h
624 13-12-2020 23:00:00 3.15 C 5.69 g/m*3 3.15 C 2.80833 km/h
625 14-12-2020 00:00:00 3.3 C 5.78 g/m*3 3.3 C 2.8 km/h
Sensor: Nr:Datum:Temp:Abs-Feuchte:Windchill:Wind:
Aussen-T/F 626 14-12-2020 01:00:00 3.90833 C 6.02 g/m*3 3.91 C 0 km/h
627 14-12-2020 02:00:00 4.44167 C 6.15 g/m*3 4.44 C 2 km/h
628 14-12-2020 03:00:00 4.04167 C 6 g/m*3 4.04 C 1.33333 km/h
629 14-12-2020 04:00:00 4.78333 C 6.36 g/m*3 4.78 C 0.26667 km/h
630 14-12-2020 05:00:00 5.15833 C 6.52 g/m*3 5.16 C 0 km/h
631 14-12-2020 06:00:00 5.3 C 6.52 g/m*3 5.3 C 0 km/h
632 14-12-2020 07:00:00 5.50833 C 6.59 g/m*3 5.51 C 0.13333 km/h
633 14-12-2020 08:00:00 5.675 C 6.6 g/m*3 5.68 C 1.06667 km/h
634 14-12-2020 09:00:00 6.21667 C 6.66 g/m*3 6.22 C 1.46667 km/h
635 14-12-2020 10:00:00 7.025 C 6.78 g/m*3 7.03 C 0.53333 km/h
636 14-12-2020 11:00:00 6.55833 C 6.71 g/m*3 6.56 C 0.93333 km/h
637 14-12-2020 12:00:00 6.48333 C 6.79 g/m*3 6.48 C 3.34167 km/h
638 14-12-2020 13:00:00 7.775 C 7.24 g/m*3 7.78 C 1.2 km/h
639 14-12-2020 14:00:00 9.05 C 7.22 g/m*3 9.05 C 2.26667 km/h
640 14-12-2020 15:00:00 8.89167 C 7.22 g/m*3 8.89 C 1.075 km/h
641 14-12-2020 16:00:00 7.40833 C 6.8 g/m*3 7.41 C 2.66667 km/h
642 14-12-2020 17:00:00 6.05 C 6.49 g/m*3 6.05 C 1.06667 km/h
643 14-12-2020 18:00:00 5.85833 C 6.51 g/m*3 5.86 C 0.8 km/h
644 14-12-2020 19:00:00 6.05 C 6.6 g/m*3 6.05 C 2.26667 km/h
645 14-12-2020 20:00:00 6.10833 C 6.65 g/m*3 6.11 C 0.13333 km/h
646 14-12-2020 21:00:00 6.28333 C 6.67 g/m*3 6.28 C 0.4 km/h
647 14-12-2020 22:00:00 7.24167 C 6.76 g/m*3 7.24 C 3.61667 km/h
648 14-12-2020 23:00:00 6.94167 C 6.71 g/m*3 6.94 C 0.26667 km/h
649 15-12-2020 00:00:00 6.70833 C 6.76 g/m*3 6.71 C 0.53333 km/h
650 15-12-2020 01:00:00 6.75 C 6.94 g/m*3 6.75 C 2 km/h
Sensor: Nr:Datum:Temp:Abs-Feuchte:Windchill:Wind:
Aussen-T/F 651 15-12-2020 02:00:00 6.775 C 7.11 g/m*3 6.78 C 1.2 km/h
652 15-12-2020 03:00:00 6.8 C 7.22 g/m*3 6.8 C 2.4 km/h
653 15-12-2020 04:00:00 6.8 C 7.27 g/m*3 6.8 C 0.8 km/h
654 15-12-2020 05:00:00 6.78333 C 7.33 g/m*3 6.78 C 0 km/h
655 15-12-2020 06:00:00 6.775 C 7.33 g/m*3 6.78 C 0 km/h
656 15-12-2020 07:00:00 6.73333 C 7.31 g/m*3 6.73 C 0.13333 km/h
657 15-12-2020 08:00:00 6.56667 C 7.26 g/m*3 6.57 C 0 km/h
658 15-12-2020 09:00:00 6.96667 C 7.5 g/m*3 6.97 C 0 km/h
659 15-12-2020 10:00:00 7.66667 C 7.85 g/m*3 7.67 C 0.66667 km/h
660 15-12-2020 11:00:00 8.45 C 8.26 g/m*3 8.45 C 1.06667 km/h
661 15-12-2020 12:00:00 9.00833 C 8.56 g/m*3 9.01 C 0.93333 km/h
662 15-12-2020 13:00:00 9.7 C 8.94 g/m*3 9.7 C 0 km/h
663 15-12-2020 14:00:00 9.80833 C 9 g/m*3 9.81 C 0 km/h
664 15-12-2020 15:00:00 9.91667 C 9.07 g/m*3 9.92 C 0 km/h
665 15-12-2020 16:00:00 9.86667 C 9.04 g/m*3 9.87 C 0.26667 km/h
666 15-12-2020 17:00:00 9.75833 C 8.98 g/m*3 9.76 C 0 km/h
667 15-12-2020 18:00:00 9.79167 C 8.99 g/m*3 9.79 C 2.8 km/h
668 15-12-2020 19:00:00 8.9 C 8.5 g/m*3 8.9 C 3.33333 km/h
669 15-12-2020 20:00:00 7.90833 C 7.97 g/m*3 7.91 C 2.675 km/h
670 15-12-2020 21:00:00 7.10833 C 7.56 g/m*3 7.11 C 1.86667 km/h
671 15-12-2020 22:00:00 6.225 C 7.14 g/m*3 6.23 C 0.13333 km/h
672 15-12-2020 23:00:00 5.91667 C 7.01 g/m*3 5.92 C 0.13333 km/h
673 16-12-2020 00:00:00 6.625 C 7.37 g/m*3 6.63 C 0.13333 km/h
674 16-12-2020 01:00:00 6.325 C 7.19 g/m*3 6.33 C 0.13333 km/h
675 16-12-2020 02:00:00 6.41667 C 7.3 g/m*3 6.42 C 0.26667 km/h
Sensor: Nr:Datum:Temp:Abs-Feuchte:Windchill:Wind:
Aussen-T/F 676 16-12-2020 03:00:00 6.73333 C 7.46 g/m*3 6.73 C 0.13333 km/h
677 16-12-2020 04:00:00 6.70833 C 7.45 g/m*3 6.71 C 0 km/h
678 16-12-2020 05:00:00 6.3 C 7.19 g/m*3 6.3 C 0 km/h
679 16-12-2020 06:00:00 6.425 C 7.3 g/m*3 6.43 C 0 km/h
680 16-12-2020 07:00:00 6.50833 C 7.35 g/m*3 6.51 C 0.13333 km/h
681 16-12-2020 08:00:00 7.15833 C 7.67 g/m*3 7.16 C 0 km/h
682 16-12-2020 09:00:00 7.44167 C 7.81 g/m*3 7.44 C 0 km/h
683 16-12-2020 10:00:00 8.43333 C 8.33 g/m*3 8.43 C 0.13333 km/h
684 16-12-2020 11:00:00 9.43333 C 8.88 g/m*3 9.43 C 0.4 km/h
685 16-12-2020 12:00:00 9.89167 C 9.15 g/m*3 9.89 C 4.275 km/h
686 16-12-2020 13:00:00 9.91667 C 9.06 g/m*3 9.92 C 4.41667 km/h
687 16-12-2020 14:00:00 9.76667 C 8.85 g/m*3 9.77 C 2.93333 km/h
688 16-12-2020 15:00:00 9.46667 C 8.65 g/m*3 9.47 C 0.4 km/h
689 16-12-2020 16:00:00 7.875 C 7.79 g/m*3 7.88 C 1.6 km/h
690 16-12-2020 17:00:00 7.125 C 7.51 g/m*3 7.13 C 2.93333 km/h
691 16-12-2020 18:00:00 6.875 C 7.41 g/m*3 6.88 C 3.06667 km/h
692 16-12-2020 19:00:00 7 C 7.52 g/m*3 7 C 2.13333 km/h
693 16-12-2020 20:00:00 6.71667 C 7.38 g/m*3 6.72 C 2 km/h
694 16-12-2020 21:00:00 6.31667 C 7.19 g/m*3 6.32 C 2.4 km/h
695 16-12-2020 22:00:00 6.85833 C 7.47 g/m*3 6.86 C 2.8 km/h
696 16-12-2020 23:00:00 7.23333 C 7.67 g/m*3 7.23 C 1.73333 km/h
697 17-12-2020 00:00:00 7.04167 C 7.54 g/m*3 7.04 C 2 km/h
698 17-12-2020 01:00:00 6.53333 C 7.29 g/m*3 6.53 C 2.13333 km/h
699 17-12-2020 02:00:00 6.225 C 7.16 g/m*3 6.23 C 0.66667 km/h
700 17-12-2020 03:00:00 7.05833 C 7.62 g/m*3 7.06 C 3.33333 km/h
Sensor: Nr:Datum:Temp:Abs-Feuchte:Windchill:Wind:
Aussen-T/F 701 17-12-2020 04:00:00 7.25 C 7.72 g/m*3 7.25 C 0.8 km/h
702 17-12-2020 05:00:00 7.2 C 7.69 g/m*3 7.2 C 1.86667 km/h
703 17-12-2020 06:00:00 7.25 C 7.7 g/m*3 7.25 C 2 km/h
704 17-12-2020 07:00:00 6.79167 C 7.45 g/m*3 6.79 C 1.2 km/h
705 17-12-2020 08:00:00 7.03333 C 7.61 g/m*3 7.03 C 0.66667 km/h
706 17-12-2020 09:00:00 7.79167 C 7.99 g/m*3 7.79 C 0.53333 km/h
707 17-12-2020 10:00:00 8.94167 C 8.61 g/m*3 8.94 C 2.80833 km/h
708 17-12-2020 11:00:00 9.04167 C 8.66 g/m*3 9.04 C 4.00833 km/h
709 17-12-2020 12:00:00 8.85833 C 8.4 g/m*3 7.71 C 7.8 km/h
710 17-12-2020 13:00:00 9.70833 C 8.36 g/m*3 8.34 C 9.65833 km/h
711 17-12-2020 14:00:00 10.175 C 8.27 g/m*3 9.2 C 8.05833 km/h
712 17-12-2020 15:00:00 9.58333 C 7.92 g/m*3 8.48 C 8.19167 km/h
713 17-12-2020 16:00:00 8.56667 C 7.57 g/m*3 7.57 C 6.95833 km/h
714 17-12-2020 17:00:00 7.29167 C 7.21 g/m*3 6.4 C 5.86667 km/h
715 17-12-2020 18:00:00 6.69167 C 7.11 g/m*3 6.69 C 3.86667 km/h
716 17-12-2020 19:00:00 5.05833 C 6.37 g/m*3 5.06 C 0.53333 km/h
717 17-12-2020 20:00:00 4.93333 C 6.46 g/m*3 4.93 C 3.2 km/h
718 17-12-2020 21:00:00 5.03333 C 6.54 g/m*3 5.03 C 0.8 km/h
719 17-12-2020 22:00:00 4.85 C 6.46 g/m*3 4.85 C 0.26667 km/h
720 17-12-2020 23:00:00 4.63333 C 6.39 g/m*3 4.63 C 0 km/h

Maximal/Minimal-Werte vom 23.02.2003 - 03.08.2020

Sensor Min Max Avg
Temp
(Aussen-T/F)
-16.4 °C
20-12-2009  01:30:01
40.4 °C
25-07-2019  16:20:00
11.23 °C

Die Daten stammen von einer Davis Vantage Pro 2 Wetter-Station und werden unter Linux mit der Software wview2wettercgi und aufbereitet. Alle Angaben erfolgen ohne Gewähr für ihre Vollständigkeit oder Richtigkeit.
Kontakt: Rainer Krienke krienke@uni-koblenz.de . Meine Webseiten an der Uni Koblenz oder privat.
Version: $Revision: 0.78 $